Time;durP1;ratioP1;P1;durP2;ratioP2;P2;SDS_P1;SDS_P2;PMS_P1;PMS_P2;Temp;Humidity;BMP_temperature;BMP_pressure;BME280_temperature;BME280_humidity;BME280_pressure;Samples;Min_cycle;Max_cycle;Signal;HPM_P1;HPM_P2
2024/02/07 00:07:50;;;;;;;8.52;3.17;;;6.60;99.90;;;;;;20599952;28;20145;-41
2024/02/07 00:17:51;;;;;;;9.88;1.00;;;6.70;99.90;;;;;;20613829;28;20589;-42
2024/02/07 00:27:51;;;;;;;4.60;1.02;;;6.70;99.90;;;;;;20607941;28;20435;-42
2024/02/07 00:37:52;;;;;;;8.98;1.40;;;6.60;99.90;;;;;;20593815;28;20050;-42
2024/02/07 00:47:53;;;;;;;7.03;1.00;;;6.50;99.90;;;;;;20610726;28;20125;-42
2024/02/07 00:57:55;;;;;;;4.90;1.00;;;6.40;99.90;;;;;;20599309;28;20043;-42
2024/02/07 01:07:55;;;;;;;5.75;0.70;;;6.40;99.90;;;;;;20596711;28;20527;-42
2024/02/07 01:17:56;;;;;;;5.18;0.70;;;6.30;99.90;;;;;;20607558;28;20213;-42
2024/02/07 01:27:56;;;;;;;7.22;0.80;;;6.20;99.90;;;;;;20602614;28;20065;-42
2024/02/07 01:38:07;;;;;;;5.75;0.85;;;6.10;99.90;;;;;;20604269;28;20141;-42
2024/02/07 01:48:08;;;;;;;5.95;0.65;;;6.20;99.90;;;;;;20580481;28;20046;-41
2024/02/07 01:58:09;;;;;;;7.22;0.82;;;6.00;99.90;;;;;;20582382;28;20038;-41
2024/02/07 02:08:10;;;;;;;5.75;0.60;;;5.70;99.90;;;;;;20594428;28;20039;-41
2024/02/07 02:18:11;;;;;;;9.05;1.73;;;5.80;99.90;;;;;;20570429;28;20562;-41
2024/02/07 02:28:41;;;;;;;5.53;0.60;;;5.70;99.90;;;;;;20582978;28;20406;-42
2024/02/07 02:38:42;;;;;;;9.52;1.10;;;5.60;99.90;;;;;;20601344;28;20069;-41
2024/02/07 02:48:43;;;;;;;5.15;1.25;;;5.60;99.90;;;;;;20576417;28;20046;-41
2024/02/07 02:58:44;;;;;;;3.50;0.50;;;5.30;99.90;;;;;;20587932;28;20035;-42
2024/02/07 03:08:54;;;;;;;7.05;0.70;;;5.20;99.90;;;;;;20604973;28;20058;-41
2024/02/07 03:18:58;;;;;;;6.22;0.80;;;5.30;99.90;;;;;;20595443;28;20073;-41
2024/02/07 03:28:59;;;;;;;4.20;0.73;;;5.20;99.90;;;;;;20593469;28;20086;-40
2024/02/07 03:39:00;;;;;;;4.78;0.80;;;5.30;99.90;;;;;;20589409;28;20043;-42
2024/02/07 03:49:00;;;;;;;4.95;0.70;;;5.20;99.90;;;;;;20606844;28;20049;-41
2024/02/07 03:59:04;;;;;;;8.45;0.70;;;5.30;99.90;;;;;;20605076;28;20034;-41
2024/02/07 04:09:05;;;;;;;3.67;0.50;;;5.20;99.90;;;;;;20602373;28;20042;-42
2024/02/07 05:21:01;;;;;;;5.63;0.68;;;5.20;99.90;;;;;;20614763;28;20446;-41
2024/02/07 05:31:02;;;;;;;6.43;0.82;;;5.30;99.90;;;;;;20614169;28;20449;-41
2024/02/07 05:41:03;;;;;;;10.63;1.02;;;5.20;99.90;;;;;;20610347;28;20049;-41
2024/02/07 05:51:04;;;;;;;9.80;0.80;;;5.10;99.90;;;;;;20595508;28;20066;-41
2024/02/07 06:01:07;;;;;;;6.07;0.80;;;5.10;99.90;;;;;;20604841;28;20070;-41
2024/02/07 06:11:07;;;;;;;6.93;0.90;;;5.10;99.90;;;;;;20595320;28;20054;-41
2024/02/07 06:21:08;;;;;;;6.60;0.82;;;5.10;99.90;;;;;;20584531;28;20161;-41
2024/02/07 06:31:09;;;;;;;6.78;0.85;;;5.10;99.90;;;;;;20606639;28;20069;-41
2024/02/07 06:41:10;;;;;;;8.00;1.00;;;5.10;99.90;;;;;;20609747;28;20038;-41
2024/02/07 06:51:10;;;;;;;10.77;1.20;;;5.10;99.90;;;;;;20603919;28;20069;-41
2024/02/07 07:01:11;;;;;;;9.38;1.58;;;5.10;99.90;;;;;;20598640;28;20039;-41
2024/02/07 07:11:11;;;;;;;5.10;1.30;;;5.10;99.90;;;;;;20584231;28;20043;-41
2024/02/07 07:21:12;;;;;;;11.03;1.63;;;5.10;99.90;;;;;;20582829;28;20545;-41
2024/02/07 07:31:13;;;;;;;8.45;2.30;;;5.10;99.90;;;;;;20590714;28;20399;-42
2024/02/07 07:41:13;;;;;;;7.15;2.13;;;5.10;99.90;;;;;;20588999;28;20892;-41
2024/02/07 07:51:19;;;;;;;6.95;1.60;;;5.10;99.90;;;;;;20604794;28;20121;-41
2024/02/07 08:01:21;;;;;;;10.23;2.33;;;5.20;99.90;;;;;;20598967;28;20393;-40
2024/02/07 08:11:22;;;;;;;7.38;1.65;;;5.20;99.90;;;;;;20595352;28;20049;-41
2024/02/07 08:21:23;;;;;;;8.50;1.87;;;5.20;99.90;;;;;;20616861;28;20486;-41
2024/02/07 08:31:23;;;;;;;9.80;2.00;;;5.30;99.90;;;;;;20615744;28;20501;-41
2024/02/07 08:41:24;;;;;;;11.13;1.90;;;5.40;99.90;;;;;;20609279;28;20498;-41
2024/02/07 08:51:24;;;;;;;11.27;2.37;;;5.30;99.90;;;;;;20618856;28;20454;-41
2024/02/07 09:01:25;;;;;;;11.75;2.17;;;5.40;99.90;;;;;;20613588;28;20496;-41
2024/02/07 09:11:25;;;;;;;15.68;3.25;;;5.40;99.90;;;;;;20569350;28;20053;-41
2024/02/07 09:21:27;;;;;;;13.07;2.33;;;5.50;99.90;;;;;;20626683;28;20053;-41
2024/02/07 09:31:27;;;;;;;20.67;2.33;;;5.60;99.90;;;;;;20610163;28;20047;-41
2024/02/07 09:41:28;;;;;;;15.73;2.55;;;5.70;99.90;;;;;;20612368;28;20160;-41
2024/02/07 09:51:30;;;;;;;18.58;2.25;;;5.70;99.90;;;;;;20606760;28;20046;-41
2024/02/07 10:01:33;;;;;;;19.25;2.30;;;5.70;99.90;;;;;;20626719;28;20560;-41
2024/02/07 10:11:35;;;;;;;27.15;4.90;;;5.70;99.90;;;;;;20628876;28;20046;-41
2024/02/07 10:21:36;;;;;;;17.98;2.83;;;5.80;99.90;;;;;;20618755;28;20030;-41
2024/02/07 10:31:37;;;;;;;10.00;1.90;;;6.00;99.90;;;;;;20626024;28;20399;-41
2024/02/07 10:41:37;;;;;;;14.77;1.63;;;6.20;99.90;;;;;;20622145;28;20585;-41
2024/02/07 10:51:39;;;;;;;9.70;1.70;;;6.20;99.90;;;;;;20625278;28;20053;-41
2024/02/07 11:01:41;;;;;;;19.35;2.00;;;6.30;99.90;;;;;;20621112;28;20034;-41
2024/02/07 11:11:42;;;;;;;10.23;1.30;;;6.20;99.90;;;;;;20620309;28;20406;-41
2024/02/07 11:21:44;;;;;;;16.83;1.83;;;6.30;99.90;;;;;;20622331;28;20538;-41
2024/02/07 11:31:45;;;;;;;15.57;2.13;;;6.60;99.90;;;;;;20614303;28;20042;-41
2024/02/07 11:41:46;;;;;;;8.85;1.50;;;6.80;71.10;;;;;;20608807;28;20140;-41
2024/02/07 11:52:00;;;;;;;10.88;1.95;;;7.00;48.70;;;;;;20606713;28;20164;-41
2024/02/07 12:02:00;;;;;;;7.32;1.17;;;7.30;36.60;;;;;;20609165;28;20031;-42
2024/02/07 12:12:01;;;;;;;11.90;1.50;;;7.60;7.60;;;;;;20626894;28;20706;-41
2024/02/07 12:22:03;;;;;;;9.30;1.30;;;7.80;1.00;;;;;;20621610;28;20398;-41
2024/02/07 12:32:04;;;;;;;8.18;1.05;;;7.80;1.00;;;;;;20598145;28;20119;-41
2024/02/07 12:42:11;;;;;;;12.00;1.63;;;8.40;1.00;;;;;;20609260;28;20034;-41
2024/02/07 12:52:12;;;;;;;4.82;0.90;;;8.60;1.00;;;;;;20601881;28;20034;-41
2024/02/07 13:02:14;;;;;;;11.25;1.00;;;8.20;1.00;;;;;;20626981;28;20196;-41
2024/02/07 13:12:14;;;;;;;8.50;2.10;;;7.90;1.00;;;;;;20627345;28;20050;-41
2024/02/07 13:22:15;;;;;;;11.20;1.70;;;7.90;1.00;;;;;;20625912;28;20474;-40
2024/02/07 13:32:21;;;;;;;8.20;1.25;;;7.80;1.00;;;;;;20619741;28;20053;-41
2024/02/07 13:42:22;;;;;;;7.40;1.25;;;7.50;1.00;;;;;;20627417;28;20034;-41
2024/02/07 13:52:23;;;;;;;6.50;1.05;;;7.20;1.00;;;;;;20627297;28;21792;-41
2024/02/07 14:02:23;;;;;;;6.53;0.88;;;7.10;1.00;;;;;;20620822;28;20038;-40
2024/02/07 14:12:24;;;;;;;10.50;1.17;;;7.10;1.00;;;;;;20600457;28;20483;-40
2024/02/07 14:22:25;;;;;;;13.00;1.38;;;7.10;1.00;;;;;;20612272;28;20030;-40
2024/02/07 14:32:25;;;;;;;5.30;0.70;;;7.10;1.00;;;;;;20622938;28;20506;-41
2024/02/07 14:42:26;;;;;;;9.75;1.20;;;7.10;1.00;;;;;;20604946;28;20042;-40
2024/02/07 14:52:27;;;;;;;8.07;1.25;;;7.00;1.00;;;;;;20597635;28;20073;-40
2024/02/07 15:02:27;;;;;;;8.75;1.20;;;7.00;1.00;;;;;;20587207;28;20549;-41
2024/02/07 15:12:28;;;;;;;6.38;0.98;;;6.90;1.00;;;;;;20587973;28;20043;-40
2024/02/07 15:22:30;;;;;;;6.93;1.05;;;6.90;1.00;;;;;;20597255;28;20779;-40
2024/02/07 15:32:30;;;;;;;6.32;0.95;;;6.80;1.00;;;;;;20592906;28;20063;-41
2024/02/07 15:42:33;;;;;;;7.43;0.80;;;6.90;1.00;;;;;;20618908;28;20073;-40
2024/02/07 15:52:34;;;;;;;4.45;1.23;;;6.80;1.00;;;;;;20609320;28;20039;-41
2024/02/07 16:02:35;;;;;;;10.63;2.10;;;6.80;1.00;;;;;;20605464;28;20613;-40
2024/02/07 16:12:37;;;;;;;9.68;1.33;;;6.70;1.00;;;;;;20595440;28;20387;-41
2024/02/07 16:22:37;;;;;;;6.47;1.30;;;6.70;1.00;;;;;;20599241;28;20039;-41
2024/02/07 16:32:38;;;;;;;9.95;1.50;;;6.60;1.00;;;;;;20591785;28;20066;-41
2024/02/07 16:42:38;;;;;;;9.82;1.42;;;6.60;1.00;;;;;;20630210;28;20463;-41
2024/02/07 16:52:39;;;;;;;9.60;1.85;;;6.50;1.00;;;;;;20630697;28;20129;-40
2024/02/07 17:02:41;;;;;;;9.63;1.95;;;6.40;1.00;;;;;;20631326;28;20046;-40
2024/02/07 17:12:42;;;;;;;6.65;1.50;;;6.30;1.00;;;;;;20616956;28;20049;-41
2024/02/07 17:22:42;;;;;;;8.80;1.50;;;6.20;1.00;;;;;;20630587;28;20398;-40
2024/02/07 17:32:45;;;;;;;8.50;1.75;;;6.10;1.00;;;;;;20617139;28;20082;-41
2024/02/07 17:42:45;;;;;;;7.78;2.65;;;6.00;1.00;;;;;;20604880;28;20119;-40
2024/02/07 17:52:46;;;;;;;8.50;2.05;;;5.90;2.70;;;;;;20607704;28;20582;-40
2024/02/07 18:02:46;;;;;;;7.70;2.10;;;5.80;8.90;;;;;;20556443;28;20592;-40
2024/02/07 18:12:47;;;;;;;8.98;2.05;;;5.70;13.10;;;;;;20595796;28;20057;-41
2024/02/07 18:22:48;;;;;;;9.32;2.08;;;5.60;14.60;;;;;;20617203;28;20118;-40
2024/02/07 18:32:50;;;;;;;9.48;2.45;;;5.60;10.20;;;;;;20613747;28;20042;-40
2024/02/07 18:42:51;;;;;;;8.27;2.33;;;5.60;11.50;;;;;;20606668;28;20038;-40
2024/02/07 18:52:51;;;;;;;13.48;2.63;;;5.60;14.20;;;;;;20616744;28;20517;-41
2024/02/07 19:02:52;;;;;;;7.63;2.58;;;5.40;14.00;;;;;;20577731;28;20509;-41
2024/02/07 19:12:53;;;;;;;11.57;4.90;;;5.40;10.00;;;;;;20592598;28;20388;-42
2024/02/07 19:22:53;;;;;;;8.43;2.17;;;5.20;12.30;;;;;;20575005;28;20516;-43
2024/02/07 19:32:54;;;;;;;11.82;3.35;;;5.00;16.10;;;;;;20594432;28;20654;-43
2024/02/07 19:42:54;;;;;;;9.15;3.20;;;4.80;21.50;;;;;;20597530;28;20043;-42
2024/02/07 19:52:55;;;;;;;10.75;3.30;;;4.70;26.10;;;;;;20588421;28;20100;-42
2024/02/07 20:02:56;;;;;;;9.63;4.00;;;4.60;27.40;;;;;;20585476;28;20042;-41
2024/02/07 20:12:56;;;;;;;11.30;3.90;;;4.40;31.10;;;;;;20592593;28;20097;-41
2024/02/07 20:22:57;;;;;;;10.40;3.83;;;4.30;44.50;;;;;;20622726;28;20505;-41
2024/02/07 20:32:57;;;;;;;15.68;4.60;;;4.20;47.60;;;;;;20625885;28;20845;-41
2024/02/07 20:42:58;;;;;;;9.65;4.47;;;4.20;50.00;;;;;;20628046;28;20044;-41
2024/02/07 20:52:59;;;;;;;14.75;5.22;;;4.00;55.10;;;;;;20608394;28;20046;-41
2024/02/07 21:03:05;;;;;;;16.23;6.60;;;3.90;56.70;;;;;;20604885;28;20514;-41
2024/02/07 21:13:05;;;;;;;17.85;7.38;;;3.80;64.70;;;;;;20606926;28;20105;-41
2024/02/07 21:23:06;;;;;;;18.70;7.45;;;3.70;70.40;;;;;;20605703;28;20518;-42
2024/02/07 21:33:07;;;;;;;18.73;8.27;;;3.70;82.20;;;;;;20609638;28;20097;-41
2024/02/07 21:43:07;;;;;;;16.10;7.28;;;3.60;80.40;;;;;;20594557;28;20054;-42
2024/02/07 21:53:08;;;;;;;19.57;7.90;;;3.50;81.50;;;;;;20608988;28;20042;-42
2024/02/07 22:03:09;;;;;;;16.15;7.00;;;3.50;85.00;;;;;;20625137;28;20501;-41
2024/02/07 22:13:09;;;;;;;13.65;6.43;;;3.40;86.00;;;;;;20593134;28;20040;-41
2024/02/07 22:23:10;;;;;;;14.98;6.45;;;3.30;90.40;;;;;;20601339;28;20045;-41
2024/02/07 22:33:10;;;;;;;17.42;7.07;;;3.30;93.90;;;;;;20604832;28;20054;-41
2024/02/07 22:43:11;;;;;;;18.40;7.35;;;3.30;93.80;;;;;;20590667;28;20490;-41
2024/02/07 22:53:12;;;;;;;18.63;8.60;;;3.20;94.50;;;;;;20604748;28;20084;-41
2024/02/07 23:03:12;;;;;;;15.35;6.65;;;3.10;97.10;;;;;;20597317;28;21218;-41
2024/02/07 23:13:13;;;;;;;10.93;5.97;;;3.10;96.90;;;;;;20638711;28;20041;-41
2024/02/07 23:23:14;;;;;;;13.95;6.53;;;3.10;98.60;;;;;;20619420;28;20041;-41
2024/02/07 23:33:19;;;;;;;12.40;6.93;;;3.10;99.90;;;;;;20614525;28;20050;-41
2024/02/07 23:43:21;;;;;;;15.30;6.07;;;3.10;99.90;;;;;;20622251;28;20034;-41
2024/02/07 23:53:22;;;;;;;13.20;7.03;;;3.00;99.90;;;;;;20623795;28;20061;-41
